sensor_id;sensor_type;location;lat;lon;timestamp;P1;P2;P0
54305;PMS7003;66145;45.188;5.712;2024-03-06T00:01:29;0.00;0.00;0.00
54305;PMS7003;66145;45.188;5.712;2024-03-06T00:03:54;0.00;0.00;0.00
54305;PMS7003;66145;45.188;5.712;2024-03-06T00:06:20;0.00;0.00;0.00
54305;PMS7003;66145;45.188;5.712;2024-03-06T00:08:45;0.00;0.00;0.00
54305;PMS7003;66145;45.188;5.712;2024-03-06T00:11:11;0.00;0.00;0.00
54305;PMS7003;66145;45.188;5.712;2024-03-06T00:13:36;0.00;0.00;0.00
54305;PMS7003;66145;45.188;5.712;2024-03-06T00:16:01;0.00;0.00;0.00
54305;PMS7003;66145;45.188;5.712;2024-03-06T00:18:26;0.00;0.00;0.00
54305;PMS7003;66145;45.188;5.712;2024-03-06T00:20:52;0.00;0.00;0.00
54305;PMS7003;66145;45.188;5.712;2024-03-06T00:23:17;0.00;0.00;0.00
54305;PMS7003;66145;45.188;5.712;2024-03-06T00:25:42;0.00;0.00;0.00
54305;PMS7003;66145;45.188;5.712;2024-03-06T00:28:08;0.00;0.00;0.00
54305;PMS7003;66145;45.188;5.712;2024-03-06T00:30:33;0.00;0.00;0.00
54305;PMS7003;66145;45.188;5.712;2024-03-06T00:32:58;0.00;0.00;0.00
54305;PMS7003;66145;45.188;5.712;2024-03-06T00:35:24;0.00;0.00;0.00
54305;PMS7003;66145;45.188;5.712;2024-03-06T00:37:49;0.00;0.00;0.00
54305;PMS7003;66145;45.188;5.712;2024-03-06T00:40:14;0.00;0.00;0.00
54305;PMS7003;66145;45.188;5.712;2024-03-06T00:42:40;0.00;0.00;0.00
54305;PMS7003;66145;45.188;5.712;2024-03-06T00:45:06;0.00;0.00;0.00
54305;PMS7003;66145;45.188;5.712;2024-03-06T00:47:31;0.00;0.00;0.00
54305;PMS7003;66145;45.188;5.712;2024-03-06T00:49:59;0.00;0.00;0.00
54305;PMS7003;66145;45.188;5.712;2024-03-06T00:52:25;0.00;0.00;0.00
54305;PMS7003;66145;45.188;5.712;2024-03-06T00:54:50;0.50;0.00;0.00
54305;PMS7003;66145;45.188;5.712;2024-03-06T00:57:15;0.00;0.00;0.00
54305;PMS7003;66145;45.188;5.712;2024-03-06T00:59:41;0.00;0.00;0.00
54305;PMS7003;66145;45.188;5.712;2024-03-06T01:02:06;0.00;0.00;0.00
54305;PMS7003;66145;45.188;5.712;2024-03-06T01:04:31;0.00;0.00;0.00
54305;PMS7003;66145;45.188;5.712;2024-03-06T01:06:57;0.00;0.00;0.00
54305;PMS7003;66145;45.188;5.712;2024-03-06T01:09:23;0.00;0.00;0.00
54305;PMS7003;66145;45.188;5.712;2024-03-06T01:11:48;0.00;0.00;0.00
54305;PMS7003;66145;45.188;5.712;2024-03-06T01:14:14;0.00;0.00;0.00
54305;PMS7003;66145;45.188;5.712;2024-03-06T01:16:39;0.00;0.00;0.00
54305;PMS7003;66145;45.188;5.712;2024-03-06T01:19:05;0.00;0.00;0.00
54305;PMS7003;66145;45.188;5.712;2024-03-06T01:21:30;0.00;0.00;0.00
54305;PMS7003;66145;45.188;5.712;2024-03-06T01:23:55;0.00;0.00;0.00
54305;PMS7003;66145;45.188;5.712;2024-03-06T01:26:20;0.00;0.00;0.00
54305;PMS7003;66145;45.188;5.712;2024-03-06T01:28:46;0.00;0.00;0.00
54305;PMS7003;66145;45.188;5.712;2024-03-06T01:31:11;0.00;0.00;0.00
54305;PMS7003;66145;45.188;5.712;2024-03-06T01:33:36;0.00;0.00;0.00
54305;PMS7003;66145;45.188;5.712;2024-03-06T01:36:02;0.00;0.00;0.00
54305;PMS7003;66145;45.188;5.712;2024-03-06T01:38:28;0.00;0.00;0.00
54305;PMS7003;66145;45.188;5.712;2024-03-06T01:40:53;0.00;0.00;0.00
54305;PMS7003;66145;45.188;5.712;2024-03-06T01:43:19;0.00;0.00;0.00
54305;PMS7003;66145;45.188;5.712;2024-03-06T01:45:47;0.00;0.00;0.00
54305;PMS7003;66145;45.188;5.712;2024-03-06T01:48:13;0.00;0.00;0.00
54305;PMS7003;66145;45.188;5.712;2024-03-06T01:50:39;0.00;0.00;0.00
54305;PMS7003;66145;45.188;5.712;2024-03-06T01:53:05;0.00;0.00;0.00
54305;PMS7003;66145;45.188;5.712;2024-03-06T01:55:31;0.50;0.00;0.00
54305;PMS7003;66145;45.188;5.712;2024-03-06T01:57:56;0.00;0.00;0.00
54305;PMS7003;66145;45.188;5.712;2024-03-06T02:00:21;0.00;0.00;0.00
54305;PMS7003;66145;45.188;5.712;2024-03-06T02:02:47;0.00;0.00;0.00
54305;PMS7003;66145;45.188;5.712;2024-03-06T02:05:13;0.00;0.00;0.00
54305;PMS7003;66145;45.188;5.712;2024-03-06T02:07:38;0.00;0.00;0.00
54305;PMS7003;66145;45.188;5.712;2024-03-06T02:10:06;0.00;0.00;0.00
54305;PMS7003;66145;45.188;5.712;2024-03-06T02:12:33;0.00;0.00;0.00
54305;PMS7003;66145;45.188;5.712;2024-03-06T02:14:58;0.00;0.00;0.00
54305;PMS7003;66145;45.188;5.712;2024-03-06T02:17:24;0.00;0.00;0.00
54305;PMS7003;66145;45.188;5.712;2024-03-06T02:19:50;0.00;0.00;0.00
54305;PMS7003;66145;45.188;5.712;2024-03-06T02:22:15;0.00;0.00;0.00
54305;PMS7003;66145;45.188;5.712;2024-03-06T02:24:42;0.00;0.00;0.00
54305;PMS7003;66145;45.188;5.712;2024-03-06T02:27:10;0.00;0.00;0.00
54305;PMS7003;66145;45.188;5.712;2024-03-06T02:29:35;0.00;0.00;0.00
54305;PMS7003;66145;45.188;5.712;2024-03-06T02:32:00;0.00;0.00;0.00
54305;PMS7003;66145;45.188;5.712;2024-03-06T02:34:28;0.00;0.00;0.00
54305;PMS7003;66145;45.188;5.712;2024-03-06T02:36:55;0.00;0.00;0.00
54305;PMS7003;66145;45.188;5.712;2024-03-06T02:39:21;0.00;0.00;0.00
54305;PMS7003;66145;45.188;5.712;2024-03-06T02:41:46;0.50;0.00;0.00
54305;PMS7003;66145;45.188;5.712;2024-03-06T02:44:12;0.00;0.00;0.00
54305;PMS7003;66145;45.188;5.712;2024-03-06T02:46:46;0.00;0.00;0.00
54305;PMS7003;66145;45.188;5.712;2024-03-06T02:49:12;0.00;0.00;0.00
54305;PMS7003;66145;45.188;5.712;2024-03-06T02:51:37;0.00;0.00;0.00
54305;PMS7003;66145;45.188;5.712;2024-03-06T02:54:03;0.00;0.00;0.00
54305;PMS7003;66145;45.188;5.712;2024-03-06T02:56:29;0.00;0.00;0.00
54305;PMS7003;66145;45.188;5.712;2024-03-06T02:58:54;0.00;0.00;0.00
54305;PMS7003;66145;45.188;5.712;2024-03-06T03:01:19;0.00;0.00;0.00
54305;PMS7003;66145;45.188;5.712;2024-03-06T03:03:45;0.00;0.00;0.00
54305;PMS7003;66145;45.188;5.712;2024-03-06T03:06:12;0.00;0.00;0.00
54305;PMS7003;66145;45.188;5.712;2024-03-06T03:08:38;0.00;0.00;0.00
54305;PMS7003;66145;45.188;5.712;2024-03-06T03:11:04;0.00;0.00;0.00
54305;PMS7003;66145;45.188;5.712;2024-03-06T03:13:29;0.00;0.00;0.00
54305;PMS7003;66145;45.188;5.712;2024-03-06T03:15:55;0.00;0.00;0.00
54305;PMS7003;66145;45.188;5.712;2024-03-06T03:18:21;0.00;0.00;0.00
54305;PMS7003;66145;45.188;5.712;2024-03-06T03:20:46;0.00;0.00;0.00
54305;PMS7003;66145;45.188;5.712;2024-03-06T03:23:12;0.00;0.00;0.00
54305;PMS7003;66145;45.188;5.712;2024-03-06T03:25:40;0.00;0.00;0.00
54305;PMS7003;66145;45.188;5.712;2024-03-06T03:28:06;0.80;0.00;0.00
54305;PMS7003;66145;45.188;5.712;2024-03-06T03:30:31;0.00;0.00;0.00
54305;PMS7003;66145;45.188;5.712;2024-03-06T03:32:57;0.00;0.00;0.00
54305;PMS7003;66145;45.188;5.712;2024-03-06T03:35:23;0.00;0.00;0.00
54305;PMS7003;66145;45.188;5.712;2024-03-06T03:37:50;0.00;0.00;0.00
54305;PMS7003;66145;45.188;5.712;2024-03-06T03:40:17;0.00;0.00;0.00
54305;PMS7003;66145;45.188;5.712;2024-03-06T03:42:43;0.00;0.00;0.00
54305;PMS7003;66145;45.188;5.712;2024-03-06T03:45:09;0.00;0.00;0.00
54305;PMS7003;66145;45.188;5.712;2024-03-06T03:47:34;0.00;0.00;0.00
54305;PMS7003;66145;45.188;5.712;2024-03-06T03:49:59;0.00;0.00;0.00
54305;PMS7003;66145;45.188;5.712;2024-03-06T03:52:25;0.00;0.00;0.00
54305;PMS7003;66145;45.188;5.712;2024-03-06T03:54:50;0.00;0.00;0.00
54305;PMS7003;66145;45.188;5.712;2024-03-06T03:57:15;0.00;0.00;0.00
54305;PMS7003;66145;45.188;5.712;2024-03-06T03:59:42;0.00;0.00;0.00
54305;PMS7003;66145;45.188;5.712;2024-03-06T04:02:07;0.00;0.00;0.00
54305;PMS7003;66145;45.188;5.712;2024-03-06T04:04:33;0.00;0.00;0.00
54305;PMS7003;66145;45.188;5.712;2024-03-06T04:06:59;0.00;0.00;0.00
54305;PMS7003;66145;45.188;5.712;2024-03-06T04:09:26;0.00;0.00;0.00
54305;PMS7003;66145;45.188;5.712;2024-03-06T04:11:52;0.00;0.00;0.00
54305;PMS7003;66145;45.188;5.712;2024-03-06T04:14:17;0.00;0.00;0.00
54305;PMS7003;66145;45.188;5.712;2024-03-06T04:16:44;0.00;0.00;0.00
54305;PMS7003;66145;45.188;5.712;2024-03-06T04:19:10;0.00;0.00;0.00
54305;PMS7003;66145;45.188;5.712;2024-03-06T04:21:40;0.00;0.00;0.00
54305;PMS7003;66145;45.188;5.712;2024-03-06T04:24:07;0.00;0.00;0.00
54305;PMS7003;66145;45.188;5.712;2024-03-06T04:26:32;0.00;0.00;0.00
54305;PMS7003;66145;45.188;5.712;2024-03-06T04:28:57;0.00;0.00;0.00
54305;PMS7003;66145;45.188;5.712;2024-03-06T04:31:23;0.00;0.00;0.00
54305;PMS7003;66145;45.188;5.712;2024-03-06T04:33:48;0.00;0.00;0.00
54305;PMS7003;66145;45.188;5.712;2024-03-06T04:36:13;0.00;0.00;0.00
54305;PMS7003;66145;45.188;5.712;2024-03-06T04:38:38;0.00;0.00;0.00
54305;PMS7003;66145;45.188;5.712;2024-03-06T04:41:05;0.00;0.00;0.00
54305;PMS7003;66145;45.188;5.712;2024-03-06T04:43:31;0.00;0.00;0.00
54305;PMS7003;66145;45.188;5.712;2024-03-06T04:45:56;0.00;0.00;0.00
54305;PMS7003;66145;45.188;5.712;2024-03-06T04:48:22;0.00;0.00;0.00
54305;PMS7003;66145;45.188;5.712;2024-03-06T04:50:47;0.00;0.00;0.00
54305;PMS7003;66145;45.188;5.712;2024-03-06T04:53:12;0.00;0.00;0.00
54305;PMS7003;66145;45.188;5.712;2024-03-06T04:55:38;0.00;0.00;0.00
54305;PMS7003;66145;45.188;5.712;2024-03-06T04:58:03;0.00;0.00;0.00
54305;PMS7003;66145;45.188;5.712;2024-03-06T05:00:29;0.00;0.00;0.00
54305;PMS7003;66145;45.188;5.712;2024-03-06T05:02:54;0.00;0.00;0.00
54305;PMS7003;66145;45.188;5.712;2024-03-06T05:05:20;1.00;0.00;0.00
54305;PMS7003;66145;45.188;5.712;2024-03-06T05:07:47;0.00;0.00;0.00
54305;PMS7003;66145;45.188;5.712;2024-03-06T05:10:12;0.00;0.00;0.00
54305;PMS7003;66145;45.188;5.712;2024-03-06T05:12:38;0.00;0.00;0.00
54305;PMS7003;66145;45.188;5.712;2024-03-06T05:15:03;0.00;0.00;0.00
54305;PMS7003;66145;45.188;5.712;2024-03-06T05:17:29;0.00;0.00;0.00
54305;PMS7003;66145;45.188;5.712;2024-03-06T05:19:54;0.00;0.00;0.00
54305;PMS7003;66145;45.188;5.712;2024-03-06T05:22:19;0.00;0.00;0.00
54305;PMS7003;66145;45.188;5.712;2024-03-06T05:24:45;0.00;0.00;0.00
54305;PMS7003;66145;45.188;5.712;2024-03-06T05:27:10;0.00;0.00;0.00
54305;PMS7003;66145;45.188;5.712;2024-03-06T05:29:42;0.00;0.00;0.00
54305;PMS7003;66145;45.188;5.712;2024-03-06T05:32:07;0.00;0.00;0.00
54305;PMS7003;66145;45.188;5.712;2024-03-06T05:34:33;0.00;0.00;0.00
54305;PMS7003;66145;45.188;5.712;2024-03-06T05:36:59;0.00;0.00;0.00
54305;PMS7003;66145;45.188;5.712;2024-03-06T05:39:24;0.00;0.00;0.00
54305;PMS7003;66145;45.188;5.712;2024-03-06T05:41:50;0.00;0.00;0.00
54305;PMS7003;66145;45.188;5.712;2024-03-06T05:44:15;0.00;0.00;0.00
54305;PMS7003;66145;45.188;5.712;2024-03-06T05:46:41;0.00;0.00;0.00
54305;PMS7003;66145;45.188;5.712;2024-03-06T05:49:06;0.00;0.00;0.00
54305;PMS7003;66145;45.188;5.712;2024-03-06T05:51:31;0.00;0.00;0.00
54305;PMS7003;66145;45.188;5.712;2024-03-06T05:53:57;0.00;0.00;0.00
54305;PMS7003;66145;45.188;5.712;2024-03-06T05:56:22;0.00;0.00;0.00
54305;PMS7003;66145;45.188;5.712;2024-03-06T05:58:47;0.00;0.00;0.00
54305;PMS7003;66145;45.188;5.712;2024-03-06T06:01:14;0.00;0.00;0.00
54305;PMS7003;66145;45.188;5.712;2024-03-06T06:03:47;0.00;0.00;0.00
54305;PMS7003;66145;45.188;5.712;2024-03-06T06:06:16;0.00;0.00;0.00
54305;PMS7003;66145;45.188;5.712;2024-03-06T06:08:41;0.00;0.00;0.00
54305;PMS7003;66145;45.188;5.712;2024-03-06T06:11:07;0.00;0.00;0.00
54305;PMS7003;66145;45.188;5.712;2024-03-06T06:13:32;0.00;0.00;0.00
54305;PMS7003;66145;45.188;5.712;2024-03-06T06:15:58;0.00;0.00;0.00
54305;PMS7003;66145;45.188;5.712;2024-03-06T06:18:23;0.00;0.00;0.00
54305;PMS7003;66145;45.188;5.712;2024-03-06T06:20:49;0.00;0.00;0.00
54305;PMS7003;66145;45.188;5.712;2024-03-06T06:23:14;0.00;0.00;0.00
54305;PMS7003;66145;45.188;5.712;2024-03-06T06:25:39;0.00;0.00;0.00
54305;PMS7003;66145;45.188;5.712;2024-03-06T06:28:05;0.00;0.00;0.00
54305;PMS7003;66145;45.188;5.712;2024-03-06T06:30:30;0.00;0.00;0.00
54305;PMS7003;66145;45.188;5.712;2024-03-06T06:32:56;0.00;0.00;0.00
54305;PMS7003;66145;45.188;5.712;2024-03-06T06:35:21;0.00;0.00;0.00
54305;PMS7003;66145;45.188;5.712;2024-03-06T06:37:47;0.00;0.00;0.00
54305;PMS7003;66145;45.188;5.712;2024-03-06T06:40:12;0.00;0.00;0.00
54305;PMS7003;66145;45.188;5.712;2024-03-06T06:42:43;0.00;0.00;0.00
54305;PMS7003;66145;45.188;5.712;2024-03-06T06:45:10;0.00;0.00;0.00
54305;PMS7003;66145;45.188;5.712;2024-03-06T06:47:35;0.00;0.00;0.00
54305;PMS7003;66145;45.188;5.712;2024-03-06T06:50:00;0.00;0.00;0.00
54305;PMS7003;66145;45.188;5.712;2024-03-06T06:52:30;0.00;0.00;0.00
54305;PMS7003;66145;45.188;5.712;2024-03-06T06:54:56;0.00;0.00;0.00
54305;PMS7003;66145;45.188;5.712;2024-03-06T06:57:21;0.00;0.00;0.00
54305;PMS7003;66145;45.188;5.712;2024-03-06T06:59:47;0.00;0.00;0.00
54305;PMS7003;66145;45.188;5.712;2024-03-06T07:02:12;0.50;0.00;0.00
54305;PMS7003;66145;45.188;5.712;2024-03-06T07:04:37;0.00;0.00;0.00
54305;PMS7003;66145;45.188;5.712;2024-03-06T07:07:03;0.00;0.00;0.00
54305;PMS7003;66145;45.188;5.712;2024-03-06T07:09:28;0.00;0.00;0.00
54305;PMS7003;66145;45.188;5.712;2024-03-06T07:11:54;0.00;0.00;0.00
54305;PMS7003;66145;45.188;5.712;2024-03-06T07:14:20;0.00;0.00;0.00
54305;PMS7003;66145;45.188;5.712;2024-03-06T07:16:46;0.00;0.00;0.00
54305;PMS7003;66145;45.188;5.712;2024-03-06T07:19:12;0.00;0.00;0.00
54305;PMS7003;66145;45.188;5.712;2024-03-06T07:21:37;0.00;0.00;0.00
54305;PMS7003;66145;45.188;5.712;2024-03-06T07:24:04;0.00;0.00;0.00
54305;PMS7003;66145;45.188;5.712;2024-03-06T07:26:31;0.00;0.00;0.00
54305;PMS7003;66145;45.188;5.712;2024-03-06T07:28:57;0.00;0.00;0.00
54305;PMS7003;66145;45.188;5.712;2024-03-06T07:31:23;0.00;0.00;0.00
54305;PMS7003;66145;45.188;5.712;2024-03-06T07:33:49;0.00;0.00;0.00
54305;PMS7003;66145;45.188;5.712;2024-03-06T07:36:15;0.00;0.00;0.00
54305;PMS7003;66145;45.188;5.712;2024-03-06T07:38:41;0.00;0.00;0.00
54305;PMS7003;66145;45.188;5.712;2024-03-06T07:41:07;0.00;0.00;0.00
54305;PMS7003;66145;45.188;5.712;2024-03-06T07:43:32;0.00;0.00;0.00
54305;PMS7003;66145;45.188;5.712;2024-03-06T07:45:57;0.00;0.00;0.00
54305;PMS7003;66145;45.188;5.712;2024-03-06T07:48:23;1.00;0.67;0.00
54305;PMS7003;66145;45.188;5.712;2024-03-06T07:50:49;0.33;0.33;0.00
54305;PMS7003;66145;45.188;5.712;2024-03-06T07:53:14;0.00;0.00;0.00
54305;PMS7003;66145;45.188;5.712;2024-03-06T07:55:39;0.00;0.00;0.00
54305;PMS7003;66145;45.188;5.712;2024-03-06T07:58:05;0.00;0.00;0.00
54305;PMS7003;66145;45.188;5.712;2024-03-06T08:00:33;0.00;0.00;0.00
54305;PMS7003;66145;45.188;5.712;2024-03-06T08:02:58;0.67;0.67;0.00
54305;PMS7003;66145;45.188;5.712;2024-03-06T08:05:25;0.00;0.00;0.00
54305;PMS7003;66145;45.188;5.712;2024-03-06T08:07:51;1.25;0.00;0.00
54305;PMS7003;66145;45.188;5.712;2024-03-06T08:10:16;0.00;0.00;0.00
54305;PMS7003;66145;45.188;5.712;2024-03-06T08:12:43;0.80;0.80;0.20
54305;PMS7003;66145;45.188;5.712;2024-03-06T08:15:10;0.50;0.00;0.00
54305;PMS7003;66145;45.188;5.712;2024-03-06T08:17:38;0.00;0.00;0.00
54305;PMS7003;66145;45.188;5.712;2024-03-06T08:20:05;0.75;0.75;0.75
54305;PMS7003;66145;45.188;5.712;2024-03-06T08:22:32;2.00;0.00;0.00
54305;PMS7003;66145;45.188;5.712;2024-03-06T08:25:08;0.00;0.00;0.00
54305;PMS7003;66145;45.188;5.712;2024-03-06T08:27:36;0.00;0.00;0.00
54305;PMS7003;66145;45.188;5.712;2024-03-06T08:30:03;0.75;0.75;0.75
54305;PMS7003;66145;45.188;5.712;2024-03-06T08:32:32;0.25;0.25;0.00
54305;PMS7003;66145;45.188;5.712;2024-03-06T08:35:02;0.00;0.00;0.00
54305;PMS7003;66145;45.188;5.712;2024-03-06T08:37:30;0.00;0.00;0.00
54305;PMS7003;66145;45.188;5.712;2024-03-06T08:39:56;1.00;1.00;0.50
54305;PMS7003;66145;45.188;5.712;2024-03-06T08:42:22;1.50;1.50;1.00
54305;PMS7003;66145;45.188;5.712;2024-03-06T08:44:47;1.00;1.00;0.00
54305;PMS7003;66145;45.188;5.712;2024-03-06T08:47:13;0.00;0.00;0.00
54305;PMS7003;66145;45.188;5.712;2024-03-06T08:49:38;1.33;1.33;1.00
54305;PMS7003;66145;45.188;5.712;2024-03-06T08:52:03;1.00;1.00;0.33
54305;PMS7003;66145;45.188;5.712;2024-03-06T08:54:29;1.00;1.00;1.00
54305;PMS7003;66145;45.188;5.712;2024-03-06T08:56:56;0.75;0.75;0.75
54305;PMS7003;66145;45.188;5.712;2024-03-06T08:59:23;0.75;0.75;0.75
54305;PMS7003;66145;45.188;5.712;2024-03-06T09:01:51;0.60;0.60;0.60
54305;PMS7003;66145;45.188;5.712;2024-03-06T09:04:17;0.00;0.00;0.00
54305;PMS7003;66145;45.188;5.712;2024-03-06T09:06:42;1.00;1.00;1.00
54305;PMS7003;66145;45.188;5.712;2024-03-06T09:09:08;0.67;0.67;0.33
54305;PMS7003;66145;45.188;5.712;2024-03-06T09:11:34;2.25;2.00;1.00
54305;PMS7003;66145;45.188;5.712;2024-03-06T09:14:00;1.00;1.00;0.00
54305;PMS7003;66145;45.188;5.712;2024-03-06T09:16:25;1.00;1.00;1.00
54305;PMS7003;66145;45.188;5.712;2024-03-06T09:18:50;1.67;1.67;1.00
54305;PMS7003;66145;45.188;5.712;2024-03-06T09:21:16;0.25;0.25;0.00
54305;PMS7003;66145;45.188;5.712;2024-03-06T09:23:41;1.00;1.00;1.00
54305;PMS7003;66145;45.188;5.712;2024-03-06T09:26:07;1.00;1.00;1.00
54305;PMS7003;66145;45.188;5.712;2024-03-06T09:28:32;1.00;1.00;0.33
54305;PMS7003;66145;45.188;5.712;2024-03-06T09:30:57;0.00;0.00;0.00
54305;PMS7003;66145;45.188;5.712;2024-03-06T09:33:22;1.00;1.00;0.67
54305;PMS7003;66145;45.188;5.712;2024-03-06T09:35:48;2.00;1.67;1.00
54305;PMS7003;66145;45.188;5.712;2024-03-06T09:38:13;1.00;1.00;1.00
54305;PMS7003;66145;45.188;5.712;2024-03-06T09:40:39;1.00;1.00;1.00
54305;PMS7003;66145;45.188;5.712;2024-03-06T09:43:07;1.00;1.00;0.75
54305;PMS7003;66145;45.188;5.712;2024-03-06T09:45:34;1.75;1.75;1.75
54305;PMS7003;66145;45.188;5.712;2024-03-06T09:48:00;0.75;0.75;0.75
54305;PMS7003;66145;45.188;5.712;2024-03-06T09:50:26;0.33;0.33;0.33
54305;PMS7003;66145;45.188;5.712;2024-03-06T09:52:54;3.75;1.75;0.75
54305;PMS7003;66145;45.188;5.712;2024-03-06T09:55:20;1.25;1.25;1.00
54305;PMS7003;66145;45.188;5.712;2024-03-06T09:57:47;0.75;0.75;0.75
54305;PMS7003;66145;45.188;5.712;2024-03-06T10:00:13;0.75;0.75;0.75
54305;PMS7003;66145;45.188;5.712;2024-03-06T10:02:41;1.00;1.00;1.00
54305;PMS7003;66145;45.188;5.712;2024-03-06T10:05:21;1.00;1.00;0.00
54305;PMS7003;66145;45.188;5.712;2024-03-06T10:07:47;1.00;1.00;0.75
54305;PMS7003;66145;45.188;5.712;2024-03-06T10:10:14;0.20;0.20;0.00
54305;PMS7003;66145;45.188;5.712;2024-03-06T10:12:40;1.00;1.00;1.00
54305;PMS7003;66145;45.188;5.712;2024-03-06T10:15:06;3.00;2.00;1.25
54305;PMS7003;66145;45.188;5.712;2024-03-06T10:17:35;1.00;1.00;1.00
54305;PMS7003;66145;45.188;5.712;2024-03-06T10:20:00;1.00;1.00;1.00
54305;PMS7003;66145;45.188;5.712;2024-03-06T10:22:30;0.75;0.75;0.75
54305;PMS7003;66145;45.188;5.712;2024-03-06T10:24:55;1.00;1.00;0.33
54305;PMS7003;66145;45.188;5.712;2024-03-06T10:27:21;2.50;0.75;0.75
54305;PMS7003;66145;45.188;5.712;2024-03-06T10:30:00;1.00;1.00;0.67
54305;PMS7003;66145;45.188;5.712;2024-03-06T10:32:29;0.25;0.25;0.25
54305;PMS7003;66145;45.188;5.712;2024-03-06T10:34:55;0.25;0.25;0.25
54305;PMS7003;66145;45.188;5.712;2024-03-06T10:37:20;3.00;1.33;1.00
54305;PMS7003;66145;45.188;5.712;2024-03-06T10:39:47;0.25;0.25;0.25
54305;PMS7003;66145;45.188;5.712;2024-03-06T10:42:19;0.00;0.00;0.00
54305;PMS7003;66145;45.188;5.712;2024-03-06T10:44:51;1.25;1.00;1.00
54305;PMS7003;66145;45.188;5.712;2024-03-06T10:47:20;1.75;0.50;0.00
54305;PMS7003;66145;45.188;5.712;2024-03-06T10:49:46;0.00;0.00;0.00
54305;PMS7003;66145;45.188;5.712;2024-03-06T10:52:12;1.25;1.00;0.00
54305;PMS7003;66145;45.188;5.712;2024-03-06T10:54:41;0.00;0.00;0.00
54305;PMS7003;66145;45.188;5.712;2024-03-06T10:57:10;0.00;0.00;0.00
54305;PMS7003;66145;45.188;5.712;2024-03-06T10:59:37;0.00;0.00;0.00
54305;PMS7003;66145;45.188;5.712;2024-03-06T11:02:03;0.00;0.00;0.00
54305;PMS7003;66145;45.188;5.712;2024-03-06T11:04:29;0.00;0.00;0.00
54305;PMS7003;66145;45.188;5.712;2024-03-06T11:06:59;0.00;0.00;0.00
54305;PMS7003;66145;45.188;5.712;2024-03-06T11:09:27;1.00;1.00;0.00
54305;PMS7003;66145;45.188;5.712;2024-03-06T11:11:54;0.80;0.80;0.60
54305;PMS7003;66145;45.188;5.712;2024-03-06T11:14:21;0.25;0.25;0.00
54305;PMS7003;66145;45.188;5.712;2024-03-06T11:17:06;0.75;0.75;0.00
54305;PMS7003;66145;45.188;5.712;2024-03-06T11:30:47;0.00;0.00;0.00
54305;PMS7003;66145;45.188;5.712;2024-03-06T11:33:16;0.80;0.80;0.60
54305;PMS7003;66145;45.188;5.712;2024-03-06T11:35:42;0.25;0.25;0.25
54305;PMS7003;66145;45.188;5.712;2024-03-06T11:38:16;0.75;0.75;0.00
54305;PMS7003;66145;45.188;5.712;2024-03-06T11:40:42;0.00;0.00;0.00
54305;PMS7003;66145;45.188;5.712;2024-03-06T11:43:24;0.00;0.00;0.00
54305;PMS7003;66145;45.188;5.712;2024-03-06T11:45:51;1.00;1.00;0.50
54305;PMS7003;66145;45.188;5.712;2024-03-06T11:48:16;0.00;0.00;0.00
54305;PMS7003;66145;45.188;5.712;2024-03-06T11:50:44;1.40;0.80;0.40
54305;PMS7003;66145;45.188;5.712;2024-03-06T11:53:10;0.67;0.67;0.00
54305;PMS7003;66145;45.188;5.712;2024-03-06T11:55:36;1.67;0.00;0.00
54305;PMS7003;66145;45.188;5.712;2024-03-06T11:58:01;1.00;1.00;0.00
54305;PMS7003;66145;45.188;5.712;2024-03-06T12:00:29;0.75;0.75;0.00
54305;PMS7003;66145;45.188;5.712;2024-03-06T12:02:55;0.00;0.00;0.00
54305;PMS7003;66145;45.188;5.712;2024-03-06T12:05:21;0.67;0.67;0.00
54305;PMS7003;66145;45.188;5.712;2024-03-06T12:07:52;0.00;0.00;0.00
54305;PMS7003;66145;45.188;5.712;2024-03-06T12:10:19;0.20;0.20;0.20
54305;PMS7003;66145;45.188;5.712;2024-03-06T12:12:44;0.00;0.00;0.00
54305;PMS7003;66145;45.188;5.712;2024-03-06T12:15:10;0.25;0.25;0.00
54305;PMS7003;66145;45.188;5.712;2024-03-06T12:18:10;0.00;0.00;0.00
54305;PMS7003;66145;45.188;5.712;2024-03-06T12:20:30;0.00;0.00;0.00
54305;PMS7003;66145;45.188;5.712;2024-03-06T12:22:56;0.00;0.00;0.00
54305;PMS7003;66145;45.188;5.712;2024-03-06T12:25:23;0.00;0.00;0.00
54305;PMS7003;66145;45.188;5.712;2024-03-06T12:27:50;0.00;0.00;0.00
54305;PMS7003;66145;45.188;5.712;2024-03-06T12:30:20;0.00;0.00;0.00
54305;PMS7003;66145;45.188;5.712;2024-03-06T12:32:59;0.75;0.75;0.25
54305;PMS7003;66145;45.188;5.712;2024-03-06T12:35:29;1.00;1.00;1.00
54305;PMS7003;66145;45.188;5.712;2024-03-06T12:37:54;2.00;2.00;1.67
54305;PMS7003;66145;45.188;5.712;2024-03-06T12:40:20;1.67;1.67;1.33
54305;PMS7003;66145;45.188;5.712;2024-03-06T12:42:45;2.33;1.33;1.33
54305;PMS7003;66145;45.188;5.712;2024-03-06T12:45:11;3.00;3.00;2.00
54305;PMS7003;66145;45.188;5.712;2024-03-06T12:47:40;2.50;2.50;1.75
54305;PMS7003;66145;45.188;5.712;2024-03-06T12:50:07;4.00;3.50;3.25
54305;PMS7003;66145;45.188;5.712;2024-03-06T12:52:33;2.67;2.67;2.67
54305;PMS7003;66145;45.188;5.712;2024-03-06T12:54:59;2.75;2.75;2.75
54305;PMS7003;66145;45.188;5.712;2024-03-06T12:57:25;1.67;1.67;1.67
54305;PMS7003;66145;45.188;5.712;2024-03-06T12:59:50;1.67;1.67;1.33
54305;PMS7003;66145;45.188;5.712;2024-03-06T13:02:16;1.67;1.67;1.00
54305;PMS7003;66145;45.188;5.712;2024-03-06T13:04:41;2.67;2.67;2.00
54305;PMS7003;66145;45.188;5.712;2024-03-06T13:07:06;2.00;2.00;2.00
54305;PMS7003;66145;45.188;5.712;2024-03-06T13:09:32;2.67;2.67;2.00
54305;PMS7003;66145;45.188;5.712;2024-03-06T13:11:57;2.33;2.00;1.67
54305;PMS7003;66145;45.188;5.712;2024-03-06T13:14:23;1.00;1.00;1.00
54305;PMS7003;66145;45.188;5.712;2024-03-06T13:16:48;1.00;1.00;1.00
54305;PMS7003;66145;45.188;5.712;2024-03-06T13:19:13;1.00;1.00;1.00
54305;PMS7003;66145;45.188;5.712;2024-03-06T13:21:39;1.00;1.00;1.00
54305;PMS7003;66145;45.188;5.712;2024-03-06T13:24:04;0.00;0.00;0.00
54305;PMS7003;66145;45.188;5.712;2024-03-06T13:26:30;1.00;1.00;1.00
54305;PMS7003;66145;45.188;5.712;2024-03-06T13:28:55;1.00;1.00;1.00
54305;PMS7003;66145;45.188;5.712;2024-03-06T13:31:20;0.33;0.33;0.00
54305;PMS7003;66145;45.188;5.712;2024-03-06T13:33:46;1.00;1.00;1.00
54305;PMS7003;66145;45.188;5.712;2024-03-06T13:36:11;0.00;0.00;0.00
54305;PMS7003;66145;45.188;5.712;2024-03-06T13:38:36;0.25;0.25;0.00
54305;PMS7003;66145;45.188;5.712;2024-03-06T13:41:02;0.67;0.67;0.67
54305;PMS7003;66145;45.188;5.712;2024-03-06T13:43:28;0.50;0.50;0.50
54305;PMS7003;66145;45.188;5.712;2024-03-06T13:45:53;0.33;0.00;0.00
54305;PMS7003;66145;45.188;5.712;2024-03-06T13:48:19;1.00;1.00;0.50
54305;PMS7003;66145;45.188;5.712;2024-03-06T13:50:45;1.50;0.50;0.50
54305;PMS7003;66145;45.188;5.712;2024-03-06T13:53:11;0.50;0.50;0.25
54305;PMS7003;66145;45.188;5.712;2024-03-06T13:55:37;0.67;0.67;0.67
54305;PMS7003;66145;45.188;5.712;2024-03-06T13:58:02;1.33;1.00;0.67
54305;PMS7003;66145;45.188;5.712;2024-03-06T14:00:29;0.00;0.00;0.00
54305;PMS7003;66145;45.188;5.712;2024-03-06T14:02:54;0.00;0.00;0.00
54305;PMS7003;66145;45.188;5.712;2024-03-06T14:05:20;0.67;0.67;0.00
54305;PMS7003;66145;45.188;5.712;2024-03-06T14:07:50;0.20;0.20;0.00
54305;PMS7003;66145;45.188;5.712;2024-03-06T14:10:15;0.00;0.00;0.00
54305;PMS7003;66145;45.188;5.712;2024-03-06T14:12:44;0.00;0.00;0.00
54305;PMS7003;66145;45.188;5.712;2024-03-06T14:15:09;2.00;0.00;0.00
54305;PMS7003;66145;45.188;5.712;2024-03-06T14:17:37;0.60;0.60;0.00
54305;PMS7003;66145;45.188;5.712;2024-03-06T14:20:02;0.00;0.00;0.00
54305;PMS7003;66145;45.188;5.712;2024-03-06T14:22:28;0.50;0.50;0.50
54305;PMS7003;66145;45.188;5.712;2024-03-06T14:24:53;0.50;0.00;0.00
54305;PMS7003;66145;45.188;5.712;2024-03-06T14:27:20;0.00;0.00;0.00
54305;PMS7003;66145;45.188;5.712;2024-03-06T14:29:45;0.00;0.00;0.00